Time;durP1;ratioP1;P1;durP2;ratioP2;P2;SDS_P1;SDS_P2;PMS_P1;PMS_P2;Temp;Humidity;BMP_temperature;BMP_pressure;BME280_temperature;BME280_humidity;BME280_pressure;Samples;Min_cycle;Max_cycle;Signal;HPM_P1;HPM_P2
2021/12/09 00:00:27;;;;;;;2.10;1.38;;;;;;;1.18;97.81;100046.94;5032189;28;20410;-74
2021/12/09 00:02:53;;;;;;;13.43;1.58;;;;;;;1.22;97.95;100032.94;5052325;28;20094;-72
2021/12/09 00:05:21;;;;;;;3.78;1.92;;;;;;;1.22;98.21;100050.19;5050641;28;20116;-73
2021/12/09 00:07:52;;;;;;;2.97;1.33;;;;;;;1.26;97.93;100042.19;5067456;28;20041;-73
2021/12/09 00:10:21;;;;;;;3.03;2.40;;;;;;;1.33;98.02;100030.59;5043207;28;20048;-74
2021/12/09 00:12:48;;;;;;;4.90;2.17;;;;;;;1.50;98.01;100040.06;5046373;28;20049;-74
2021/12/09 00:15:15;;;;;;;7.78;2.47;;;;;;;1.54;98.25;100028.63;5043801;28;20565;-72
2021/12/09 00:17:42;;;;;;;6.97;2.85;;;;;;;1.70;97.94;100031.13;5061566;28;20048;-73
2021/12/09 00:20:10;;;;;;;5.30;1.25;;;;;;;1.61;97.97;100026.47;5033107;28;20044;-72
2021/12/09 00:22:36;;;;;;;3.00;1.85;;;;;;;1.72;97.77;100034.47;5053088;28;20076;-72
2021/12/09 00:25:05;;;;;;;2.83;2.20;;;;;;;1.68;97.48;100032.16;5051359;28;20049;-73
2021/12/09 00:27:32;;;;;;;3.05;1.20;;;;;;;1.65;97.37;100033.16;5052764;28;20048;-73
2021/12/09 00:29:59;;;;;;;2.53;1.67;;;;;;;1.64;97.44;100038.44;5048001;28;20048;-73
2021/12/09 00:32:25;;;;;;;6.05;2.67;;;;;;;1.61;97.63;100036.81;5047269;28;20044;-72
2021/12/09 00:34:52;;;;;;;1.88;1.48;;;;;;;1.55;97.23;100033.75;5046147;28;20159;-73
2021/12/09 00:37:24;;;;;;;1.95;1.67;;;;;;;1.47;97.36;100028.13;5053139;28;20052;-73
2021/12/09 00:39:53;;;;;;;6.15;2.70;;;;;;;1.50;97.25;100032.31;5039910;28;20467;-73
2021/12/09 00:42:24;;;;;;;4.97;2.47;;;;;;;1.58;97.71;100035.31;5047847;28;20041;-72
2021/12/09 00:44:53;;;;;;;2.00;1.48;;;;;;;1.63;97.71;100034.16;5033470;28;20052;-72
2021/12/09 00:47:20;;;;;;;5.22;1.58;;;;;;;1.62;97.54;100033.31;5051437;28;20040;-75
2021/12/09 00:49:47;;;;;;;6.05;2.05;;;;;;;1.78;96.88;100033.31;5057051;28;20262;-71
2021/12/09 00:52:14;;;;;;;6.22;1.83;;;;;;;1.77;97.24;100044.59;5049717;28;20559;-71
2021/12/09 00:54:42;;;;;;;2.05;1.65;;;;;;;1.69;97.19;100042.41;5053626;28;20040;-72
2021/12/09 00:57:09;;;;;;;5.18;1.73;;;;;;;1.75;97.35;100046.41;5051510;28;20051;-72
2021/12/09 00:59:37;;;;;;;2.90;1.77;;;;;;;1.86;97.34;100044.09;5050612;28;20770;-73
2021/12/09 01:02:04;;;;;;;3.45;1.23;;;;;;;1.84;97.30;100045.91;5034613;28;20160;-72
2021/12/09 01:04:31;;;;;;;2.38;1.73;;;;;;;1.85;97.18;100045.81;5054246;28;20175;-72
2021/12/09 01:06:58;;;;;;;5.07;1.15;;;;;;;1.86;97.06;100050.09;5053775;28;20050;-73
2021/12/09 01:09:24;;;;;;;3.17;1.13;;;;;;;1.78;96.97;100049.69;5054959;28;20106;-72
2021/12/09 01:11:51;;;;;;;1.48;1.10;;;;;;;1.72;96.80;100054.38;5058136;28;20043;-72
2021/12/09 01:14:18;;;;;;;3.03;2.08;;;;;;;1.67;97.49;100058.94;5036429;28;20060;-72
2021/12/09 01:16:46;;;;;;;3.28;1.33;;;;;;;1.67;97.31;100057.22;5056324;28;20576;-73
2021/12/09 01:19:13;;;;;;;1.90;1.27;;;;;;;1.70;97.54;100046.66;5039073;28;20052;-72
2021/12/09 01:21:40;;;;;;;7.07;0.90;;;;;;;1.75;97.54;100065.41;5055215;28;20106;-73
2021/12/09 01:24:07;;;;;;;1.98;0.98;;;;;;;1.65;97.44;100053.00;5036705;28;20049;-75
2021/12/09 01:26:35;;;;;;;1.15;0.77;;;;;;;1.65;97.54;100053.00;5056618;28;20046;-73
2021/12/09 01:29:08;;;;;;;1.70;0.95;;;;;;;1.77;97.73;100057.53;5040224;28;20072;-72
2021/12/09 01:31:38;;;;;;;14.80;1.13;;;;;;;1.73;97.45;100061.19;5034291;28;20102;-71
2021/12/09 01:34:08;;;;;;;7.25;2.10;;;;;;;1.78;97.48;100065.22;5034756;28;20044;-72
2021/12/09 01:36:36;;;;;;;1.88;1.15;;;;;;;1.77;97.42;100068.72;5050126;28;20040;-73
2021/12/09 01:39:04;;;;;;;1.90;1.65;;;;;;;1.72;97.30;100070.72;5047764;28;20044;-73
2021/12/09 01:41:31;;;;;;;2.55;1.75;;;;;;;1.70;97.21;100077.72;5053967;28;20045;-72
2021/12/09 01:43:58;;;;;;;1.92;1.20;;;;;;;1.70;97.37;100077.72;5056274;28;20036;-72
2021/12/09 01:46:25;;;;;;;6.85;1.95;;;;;;;1.58;97.64;100066.38;5050316;28;20119;-72
2021/12/09 01:48:53;;;;;;;2.92;1.90;;;;;;;1.44;97.18;100074.03;5055896;28;20029;-73
2021/12/09 01:51:21;;;;;;;16.00;2.42;;;;;;;1.41;97.60;100079.38;5049763;28;20048;-73
2021/12/09 01:53:50;;;;;;;1.40;1.00;;;;;;;1.52;97.89;100071.88;5057710;28;20048;-72
2021/12/09 01:56:21;;;;;;;1.50;0.80;;;;;;;1.49;97.87;100074.63;5054154;28;20658;-71
2021/12/09 01:58:49;;;;;;;11.93;1.58;;;;;;;1.42;97.64;100087.03;5035885;28;20056;-74
2021/12/09 02:01:15;;;;;;;1.63;1.42;;;;;;;1.37;97.89;100081.28;5049316;28;20044;-73
2021/12/09 02:03:42;;;;;;;7.88;0.95;;;;;;;1.39;97.75;100082.06;5052595;28;20059;-75
2021/12/09 02:06:09;;;;;;;1.38;0.95;;;;;;;1.33;98.11;100077.16;5056284;28;20068;-73
2021/12/09 02:08:37;;;;;;;2.75;1.60;;;;;;;1.56;98.46;100078.56;5037921;28;20040;-73
2021/12/09 02:11:04;;;;;;;2.53;1.58;;;;;;;1.45;98.48;100080.88;5034842;28;20052;-73
2021/12/09 02:13:31;;;;;;;1.60;1.10;;;;;;;1.36;98.25;100086.53;5052631;28;20050;-71
2021/12/09 02:15:58;;;;;;;1.50;0.90;;;;;;;1.41;98.42;100084.53;5054243;28;20064;-72
2021/12/09 02:18:25;;;;;;;2.45;1.08;;;;;;;1.45;98.08;100070.50;5048452;28;20759;-74
2021/12/09 02:21:07;;;;;;;14.00;1.02;;;;;;;1.44;98.42;100074.03;5052306;28;20120;-74
2021/12/09 02:23:36;;;;;;;2.03;1.15;;;;;;;1.34;98.76;100083.19;5029458;28;20076;-74
2021/12/09 02:26:03;;;;;;;1.92;1.35;;;;;;;1.27;98.50;100089.63;5060375;28;20040;-72
2021/12/09 02:28:31;;;;;;;3.13;1.70;;;;;;;1.17;98.51;100072.88;5060329;28;20048;-73
2021/12/09 02:30:58;;;;;;;1.42;1.00;;;;;;;1.10;98.49;100085.28;5052076;28;20033;-73
2021/12/09 02:33:24;;;;;;;2.53;1.60;;;;;;;0.99;98.71;100074.66;5053278;28;20049;-72
2021/12/09 02:35:51;;;;;;;1.80;0.80;;;;;;;0.91;98.10;100076.78;5047847;28;20047;-72
2021/12/09 02:38:19;;;;;;;6.05;1.13;;;;;;;0.84;98.35;100082.38;5055232;28;20047;-73
2021/12/09 02:40:47;;;;;;;2.15;1.42;;;;;;;0.92;98.33;100075.06;5061078;28;20054;-72
2021/12/09 02:43:14;;;;;;;1.42;1.05;;;;;;;0.94;98.62;100078.41;5074676;28;20044;-72
2021/12/09 02:45:47;;;;;;;0.98;0.88;;;;;;;0.84;98.87;100077.19;5062786;28;20047;-72
2021/12/09 02:48:16;;;;;;;2.88;1.70;;;;;;;0.80;98.86;100083.41;5059708;28;20040;-72
2021/12/09 02:50:43;;;;;;;8.52;1.83;;;;;;;0.81;98.98;100088.53;5033599;28;20056;-74
2021/12/09 02:53:10;;;;;;;2.70;2.00;;;;;;;0.92;98.94;100080.22;5033314;28;20152;-71
2021/12/09 02:55:38;;;;;;;1.75;1.52;;;;;;;1.00;98.94;100083.25;5038186;28;20064;-73
2021/12/09 02:58:04;;;;;;;3.20;2.08;;;;;;;1.00;99.08;100080.69;5056246;28;20048;-72
2021/12/09 03:00:32;;;;;;;3.22;1.65;;;;;;;1.11;99.06;100088.69;5052095;28;20036;-71
2021/12/09 03:03:00;;;;;;;5.25;1.23;;;;;;;1.08;99.34;100081.94;5056003;28;20047;-72
2021/12/09 03:05:27;;;;;;;9.68;2.70;;;;;;;1.10;99.37;100085.28;5038479;28;20045;-73
2021/12/09 03:07:53;;;;;;;7.68;2.00;;;;;;;1.09;98.95;100087.97;5052933;28;20258;-73
2021/12/09 03:10:24;;;;;;;2.92;1.63;;;;;;;0.87;98.87;100097.69;5057932;28;20048;-73
2021/12/09 03:12:55;;;;;;;3.22;1.38;;;;;;;0.85;99.01;100084.03;5038392;28;20040;-73
2021/12/09 03:15:22;;;;;;;3.90;1.75;;;;;;;0.87;98.86;100088.22;5052494;28;20044;-72
2021/12/09 03:17:49;;;;;;;2.40;1.60;;;;;;;0.83;98.89;100081.50;5053784;28;20044;-71
2021/12/09 03:20:18;;;;;;;2.50;1.65;;;;;;;0.86;98.49;100091.72;5056681;28;20564;-72
2021/12/09 03:22:46;;;;;;;3.65;2.17;;;;;;;0.71;98.78;100089.03;5052208;28;20048;-73
2021/12/09 03:25:16;;;;;;;2.67;1.27;;;;;;;0.78;98.55;100083.50;5036586;28;20055;-71
2021/12/09 03:27:43;;;;;;;3.63;1.98;;;;;;;0.72;98.50;100089.91;5051894;28;20044;-73
2021/12/09 03:30:13;;;;;;;1.63;1.23;;;;;;;0.83;98.96;100091.03;5030395;28;20055;-74
2021/12/09 03:32:40;;;;;;;4.18;2.55;;;;;;;0.73;99.23;100089.81;5050307;28;20051;-73
2021/12/09 03:35:08;;;;;;;1.58;1.08;;;;;;;0.73;98.83;100102.72;5052606;28;20059;-72
2021/12/09 03:37:35;;;;;;;3.15;1.58;;;;;;;0.65;98.89;100097.09;5047399;28;20075;-72
2021/12/09 03:40:02;;;;;;;3.63;1.92;;;;;;;0.67;99.55;100095.28;5049395;28;20048;-71
2021/12/09 03:42:31;;;;;;;2.55;1.85;;;;;;;0.92;99.15;100098.31;5051790;28;20067;-72
2021/12/09 03:44:58;;;;;;;4.88;1.27;;;;;;;0.89;99.29;100096.75;5047210;28;20065;-72
2021/12/09 03:47:29;;;;;;;2.33;2.03;;;;;;;0.93;99.62;100092.25;5056449;28;20040;-72
2021/12/09 03:49:56;;;;;;;3.35;1.98;;;;;;;1.05;99.38;100096.78;5049537;28;20127;-73
2021/12/09 03:52:24;;;;;;;2.00;1.63;;;;;;;1.02;99.92;100092.59;5055360;28;20040;-73
2021/12/09 03:54:51;;;;;;;5.30;2.83;;;;;;;1.17;99.88;100085.81;5035464;28;20135;-71
2021/12/09 03:57:18;;;;;;;2.10;1.35;;;;;;;1.12;99.72;100096.41;5053522;28;20055;-71
2021/12/09 03:59:46;;;;;;;6.22;1.70;;;;;;;1.01;99.54;100096.09;5030742;28;20347;-72
2021/12/09 04:02:14;;;;;;;3.30;1.63;;;;;;;0.80;99.26;100089.44;5054584;28;20051;-74
2021/12/09 04:04:43;;;;;;;1.33;1.17;;;;;;;0.88;99.33;100104.56;5029760;28;20083;-74
2021/12/09 04:07:10;;;;;;;4.85;1.45;;;;;;;0.75;99.10;100106.09;5029336;28;20056;-73
2021/12/09 04:09:37;;;;;;;19.25;2.22;;;;;;;0.74;98.90;100101.81;5038975;28;20102;-71
2021/12/09 04:12:04;;;;;;;2.65;1.45;;;;;;;0.68;99.17;100107.31;5032916;28;20496;-73
2021/12/09 04:14:32;;;;;;;2.75;1.67;;;;;;;0.66;98.76;100108.31;5039252;28;20045;-73
2021/12/09 04:16:59;;;;;;;3.63;1.48;;;;;;;0.61;98.60;100121.44;5032177;28;20041;-73
2021/12/09 04:19:26;;;;;;;1.92;1.30;;;;;;;0.56;98.33;100123.41;5018290;28;20056;-73
2021/12/09 04:21:55;;;;;;;2.13;1.45;;;;;;;0.53;99.24;100118.41;5036411;28;20044;-74
2021/12/09 04:24:22;;;;;;;3.63;2.05;;;;;;;0.63;98.72;100119.59;5038011;28;20044;-73
2021/12/09 04:26:50;;;;;;;5.05;1.92;;;;;;;0.64;98.98;100115.28;5034420;28;20045;-72
2021/12/09 04:29:17;;;;;;;3.60;2.05;;;;;;;0.54;98.99;100103.72;5037360;28;20055;-73
2021/12/09 04:31:47;;;;;;;1.52;1.25;;;;;;;0.49;99.33;100110.88;5039936;28;20041;-73
2021/12/09 04:34:14;;;;;;;1.50;1.10;;;;;;;0.39;99.58;100105.28;5034859;28;20045;-71
2021/12/09 04:36:41;;;;;;;2.20;1.48;;;;;;;0.42;99.45;100107.72;5043377;28;20041;-72
2021/12/09 04:39:10;;;;;;;2.20;1.58;;;;;;;0.41;99.50;100103.47;5038565;28;20043;-74
2021/12/09 04:41:37;;;;;;;5.57;1.58;;;;;;;0.56;99.65;100107.06;5033279;28;20044;-72
2021/12/09 04:44:04;;;;;;;2.25;1.48;;;;;;;0.51;99.37;100103.84;5032181;28;20068;-73
2021/12/09 04:46:31;;;;;;;2.90;1.45;;;;;;;0.44;99.53;100107.66;5039205;28;20060;-72
2021/12/09 04:48:58;;;;;;;2.22;1.40;;;;;;;0.39;99.59;100100.13;5034495;28;20049;-73
2021/12/09 04:51:24;;;;;;;3.03;1.42;;;;;;;0.43;99.69;100112.00;5035186;28;20125;-72
2021/12/09 04:53:51;;;;;;;2.25;1.67;;;;;;;0.39;99.56;100118.19;5035395;28;20041;-72
2021/12/09 04:56:19;;;;;;;2.67;1.88;;;;;;;0.36;99.43;100120.94;5039919;28;20125;-73
2021/12/09 04:58:46;;;;;;;1.83;1.33;;;;;;;0.45;99.27;100115.31;5037324;28;20125;-72
2021/12/09 05:01:13;;;;;;;2.53;1.92;;;;;;;0.37;99.61;100120.00;5029204;28;20107;-72
2021/12/09 05:03:44;;;;;;;1.35;1.08;;;;;;;0.32;99.87;100119.41;5032499;28;20041;-72
2021/12/09 05:06:11;;;;;;;2.05;0.90;;;;;;;0.33;99.71;100120.25;5051733;28;20045;-76
2021/12/09 05:08:40;;;;;;;0.98;0.88;;;;;;;0.39;99.88;100133.69;5053436;28;20056;-73
2021/12/09 05:11:10;;;;;;;2.30;1.27;;;;;;;0.38;99.30;100132.03;5052498;28;20071;-73
2021/12/09 05:13:40;;;;;;;2.88;1.95;;;;;;;0.32;99.19;100134.91;5064325;28;20152;-72
2021/12/09 05:16:08;;;;;;;2.72;1.38;;;;;;;0.25;99.88;100141.28;5062355;28;20048;-71
2021/12/09 05:18:37;;;;;;;2.42;1.67;;;;;;;0.43;100.00;100140.41;5050968;28;20132;-72
2021/12/09 05:21:06;;;;;;;2.10;1.63;;;;;;;0.46;99.69;100129.91;5064187;28;20075;-72
2021/12/09 05:23:35;;;;;;;4.57;1.65;;;;;;;0.40;99.43;100140.53;5059224;28;20049;-72
2021/12/09 05:26:02;;;;;;;5.40;2.17;;;;;;;0.34;99.38;100137.41;5056079;28;20152;-73
2021/12/09 05:28:32;;;;;;;11.50;1.40;;;;;;;0.44;99.36;100143.81;5054621;28;20036;-72
2021/12/09 05:33:48;;;;;;;1.38;0.63;;;;;;;0.44;99.83;100139.50;5052601;28;20128;-72
2021/12/09 05:36:16;;;;;;;1.13;0.85;;;;;;;0.36;100.00;100144.19;5047613;28;20067;-74
2021/12/09 05:38:43;;;;;;;5.78;1.33;;;;;;;0.38;99.47;100151.88;5054429;28;20486;-71
2021/12/09 05:41:10;;;;;;;2.70;1.92;;;;;;;0.46;99.65;100152.34;5051635;28;20075;-71
2021/12/09 05:43:37;;;;;;;2.20;1.38;;;;;;;0.39;99.75;100156.94;5055216;28;20127;-72
2021/12/09 05:46:06;;;;;;;2.60;1.48;;;;;;;0.47;99.65;100154.84;5041357;28;20059;-72
2021/12/09 05:48:33;;;;;;;3.92;1.88;;;;;;;0.38;99.68;100157.03;5050537;28;20122;-71
2021/12/09 05:50:59;;;;;;;1.77;1.05;;;;;;;0.41;99.46;100164.66;5050778;28;20051;-72
2021/12/09 05:53:26;;;;;;;2.15;1.35;;;;;;;0.36;99.85;100162.28;5051482;28;20170;-72
2021/12/09 05:55:53;;;;;;;4.80;2.17;;;;;;;0.37;100.00;100158.75;5055345;28;20040;-72
2021/12/09 05:58:22;;;;;;;15.35;1.58;;;;;;;0.29;99.82;100173.78;5053227;28;20046;-73
2021/12/09 06:00:51;;;;;;;6.18;1.63;;;;;;;0.27;99.92;100167.88;5049564;28;20044;-70
2021/12/09 06:03:20;;;;;;;14.98;1.85;;;;;;;0.30;99.43;100172.88;5030577;28;20058;-69
2021/12/09 06:05:47;;;;;;;1.88;1.13;;;;;;;0.37;100.00;100174.25;5044832;28;20061;-69
2021/12/09 06:08:14;;;;;;;3.85;2.10;;;;;;;0.31;100.00;100181.47;5050485;28;20101;-71
2021/12/09 06:10:41;;;;;;;9.15;2.45;;;;;;;0.36;99.87;100187.25;5046374;28;20048;-71
2021/12/09 06:13:11;;;;;;;2.50;1.55;;;;;;;0.37;99.73;100183.75;5031644;28;20691;-70
2021/12/09 06:15:37;;;;;;;4.70;2.13;;;;;;;0.42;100.00;100192.13;5049656;28;20060;-70
2021/12/09 06:18:04;;;;;;;6.57;1.65;;;;;;;0.32;100.00;100191.72;5055182;28;20418;-70
2021/12/09 06:20:32;;;;;;;2.17;1.23;;;;;;;0.33;100.00;100188.25;5030404;28;20044;-68
2021/12/09 06:22:59;;;;;;;1.20;1.00;;;;;;;0.33;100.00;100192.59;5048432;28;20033;-70
2021/12/09 06:25:26;;;;;;;1.38;0.90;;;;;;;0.41;99.98;100188.72;5030708;28;20048;-69
2021/12/09 06:27:54;;;;;;;0.68;0.60;;;;;;;0.46;100.00;100188.50;5054927;28;20045;-72
2021/12/09 06:30:21;;;;;;;3.40;1.30;;;;;;;0.52;99.71;100190.78;5027076;28;20119;-72
2021/12/09 06:32:48;;;;;;;0.98;0.88;;;;;;;0.57;100.00;100197.41;5053132;28;20040;-72
2021/12/09 06:35:16;;;;;;;9.75;1.73;;;;;;;0.54;100.00;100196.72;5050225;28;20135;-72
2021/12/09 06:37:46;;;;;;;6.18;1.25;;;;;;;0.65;99.90;100197.06;5043853;28;20048;-73
2021/12/09 06:40:14;;;;;;;2.90;1.13;;;;;;;0.74;100.00;100194.03;5047827;28;20121;-73
2021/12/09 06:42:41;;;;;;;5.32;1.67;;;;;;;0.76;99.74;100198.22;5053882;28;20075;-71
2021/12/09 06:45:10;;;;;;;3.08;2.00;;;;;;;0.80;100.00;100189.41;5037998;28;20040;-74
2021/12/09 06:47:37;;;;;;;1.30;1.15;;;;;;;0.76;99.82;100195.63;5036735;28;20044;-72
2021/12/09 06:50:05;;;;;;;3.50;1.35;;;;;;;0.71;100.00;100192.41;5063265;28;20105;-75
2021/12/09 06:52:32;;;;;;;7.22;1.23;;;;;;;0.70;99.93;100188.16;5059645;28;20064;-74
2021/12/09 06:55:00;;;;;;;2.55;1.52;;;;;;;0.76;100.00;100193.06;5056763;28;20040;-73
2021/12/09 06:57:27;;;;;;;10.05;2.78;;;;;;;0.77;99.95;100193.88;5054441;28;20115;-74
2021/12/09 06:59:53;;;;;;;2.70;1.17;;;;;;;0.92;99.78;100199.97;5043606;28;20056;-72
2021/12/09 07:02:20;;;;;;;1.48;1.02;;;;;;;0.99;99.91;100200.53;5054278;28;20743;-71
2021/12/09 07:04:47;;;;;;;7.25;2.28;;;;;;;1.00;99.56;100197.03;5033702;28;20503;-74
2021/12/09 07:07:14;;;;;;;0.95;0.85;;;;;;;1.00;99.66;100197.03;5029227;28;20045;-72
2021/12/09 07:09:43;;;;;;;1.42;1.20;;;;;;;1.05;99.26;100201.06;5032657;28;20069;-73
2021/12/09 07:12:11;;;;;;;3.38;1.52;;;;;;;1.03;99.39;100207.19;5033228;28;20049;-73
2021/12/09 07:14:39;;;;;;;1.13;0.98;;;;;;;1.02;99.47;100214.13;5038893;28;20134;-74
2021/12/09 07:17:06;;;;;;;4.10;1.95;;;;;;;1.09;99.79;100206.94;5033923;28;20539;-73
2021/12/09 07:19:33;;;;;;;1.35;1.25;;;;;;;1.06;99.82;100213.09;5034608;28;20149;-74
2021/12/09 07:21:59;;;;;;;0.70;0.68;;;;;;;1.04;99.34;100208.88;5026633;28;20045;-74
2021/12/09 07:24:26;;;;;;;1.15;0.82;;;;;;;0.96;99.69;100211.88;5032186;28;20080;-73
2021/12/09 07:26:52;;;;;;;1.35;1.23;;;;;;;0.93;99.44;100211.19;5028448;28;20067;-73
2021/12/09 07:29:21;;;;;;;2.10;1.50;;;;;;;0.87;99.43;100206.28;5033203;28;20688;-73
2021/12/09 07:31:47;;;;;;;2.58;2.00;;;;;;;0.84;99.76;100204.69;5037078;28;20075;-73
2021/12/09 07:34:14;;;;;;;2.08;1.20;;;;;;;0.90;99.76;100208.72;5029721;28;20044;-72
2021/12/09 07:36:41;;;;;;;2.50;1.65;;;;;;;0.84;100.00;100211.63;5032711;28;20049;-72
2021/12/09 07:39:07;;;;;;;0.90;0.85;;;;;;;0.77;100.00;100211.06;5025331;28;20041;-74
2021/12/09 07:41:35;;;;;;;2.53;1.52;;;;;;;0.81;99.89;100211.75;5029389;28;20041;-74
2021/12/09 07:44:05;;;;;;;32.50;1.80;;;;;;;0.74;100.00;100220.72;5028167;28;20052;-73
2021/12/09 07:46:34;;;;;;;7.03;1.20;;;;;;;0.80;99.97;100220.41;5036683;28;20041;-69
2021/12/09 07:49:01;;;;;;;3.13;1.70;;;;;;;0.76;99.57;100218.91;5040403;28;20095;-73
2021/12/09 07:51:28;;;;;;;0.80;0.68;;;;;;;0.73;99.86;100219.03;5048441;28;20105;-76
2021/12/09 07:53:54;;;;;;;2.65;1.42;;;;;;;0.73;99.88;100219.03;5048515;28;20059;-73
2021/12/09 07:56:21;;;;;;;2.90;1.13;;;;;;;0.95;99.57;100217.09;5041609;28;20064;-73
2021/12/09 07:58:48;;;;;;;3.60;1.65;;;;;;;0.93;99.58;100221.53;5030752;28;20032;-72
2021/12/09 08:01:15;;;;;;;1.60;1.08;;;;;;;0.92;99.46;100219.84;5029652;28;20587;-72
2021/12/09 08:03:43;;;;;;;3.47;2.13;;;;;;;0.83;99.41;100223.69;5033098;28;20068;-73
2021/12/09 08:06:09;;;;;;;1.48;1.23;;;;;;;0.80;99.64;100217.84;5040388;28;20056;-74
2021/12/09 08:08:36;;;;;;;4.70;2.75;;;;;;;0.90;99.83;100224.25;5056026;28;20052;-72
2021/12/09 08:11:03;;;;;;;2.03;1.25;;;;;;;1.09;99.92;100217.28;5049117;28;20086;-72
2021/12/09 08:13:30;;;;;;;0.95;0.88;;;;;;;1.17;99.71;100212.56;5053883;28;20051;-73
2021/12/09 08:15:59;;;;;;;1.63;1.27;;;;;;;1.30;99.78;100208.44;5031757;28;20067;-72
2021/12/09 08:18:29;;;;;;;1.80;1.10;;;;;;;1.31;100.00;100215.28;5054190;28;20083;-71
2021/12/09 08:21:00;;;;;;;6.40;1.40;;;;;;;1.38;99.63;100204.56;5050427;28;20120;-71
2021/12/09 08:23:27;;;;;;;2.00;1.33;;;;;;;1.53;100.00;100211.53;5051381;28;20505;-71
2021/12/09 08:25:56;;;;;;;6.22;2.10;;;;;;;1.72;100.00;100205.34;5045306;28;20044;-70
2021/12/09 08:28:24;;;;;;;1.67;1.58;;;;;;;1.76;99.91;100206.88;5051441;28;20040;-70
2021/12/09 08:30:52;;;;;;;2.13;1.48;;;;;;;1.77;99.69;100216.28;5036139;28;20048;-70
2021/12/09 08:33:19;;;;;;;24.20;3.10;;;;;;;1.81;99.78;100211.78;5050778;28;20073;-71
2021/12/09 08:35:46;;;;;;;3.42;2.33;;;;;;;1.92;99.41;100212.91;5050879;28;20049;-70
2021/12/09 08:38:14;;;;;;;3.50;2.08;;;;;;;1.97;99.29;100216.09;5033018;28;20040;-71
2021/12/09 08:40:43;;;;;;;2.35;1.60;;;;;;;2.10;99.11;100218.88;5043939;28;20131;-71
2021/12/09 08:43:11;;;;;;;4.18;1.63;;;;;;;2.21;98.88;100225.16;5048566;28;20045;-70
2021/12/09 08:45:38;;;;;;;11.48;2.95;;;;;;;2.37;98.58;100227.78;5036115;28;20080;-72
2021/12/09 08:48:05;;;;;;;2.50;2.00;;;;;;;2.45;98.02;100226.41;5055647;28;20041;-73
2021/12/09 08:50:33;;;;;;;4.40;2.10;;;;;;;2.49;98.20;100209.78;5054269;28;20045;-72
2021/12/09 08:53:02;;;;;;;2.80;2.17;;;;;;;2.55;97.32;100222.41;5020077;28;20045;-69
2021/12/09 08:55:30;;;;;;;2.92;2.30;;;;;;;2.66;97.16;100227.84;5059380;28;20080;-73
2021/12/09 08:57:57;;;;;;;6.78;2.70;;;;;;;2.71;96.52;100225.84;5052412;28;20094;-68
2021/12/09 09:00:28;;;;;;;3.03;2.08;;;;;;;2.77;95.45;100230.66;5069958;28;20032;-68
2021/12/09 09:02:55;;;;;;;1.67;1.30;;;;;;;2.85;95.97;100233.66;5075156;28;20043;-68
2021/12/09 09:05:21;;;;;;;6.80;2.90;;;;;;;2.90;95.09;100237.69;5061455;28;20044;-74
2021/12/09 09:07:50;;;;;;;12.43;3.63;;;;;;;2.97;93.99;100233.81;5036969;28;20044;-74
2021/12/09 09:10:18;;;;;;;2.58;1.95;;;;;;;3.09;93.99;100234.88;5049878;28;20040;-74
2021/12/09 09:12:47;;;;;;;1.65;1.50;;;;;;;3.26;93.72;100240.81;5055917;28;20052;-74
2021/12/09 09:15:15;;;;;;;15.48;3.50;;;;;;;3.37;93.05;100239.25;5036266;28;20041;-72
2021/12/09 09:17:43;;;;;;;1.88;1.17;;;;;;;3.49;92.35;100233.34;5058302;28;20048;-71
2021/12/09 09:20:12;;;;;;;2.17;1.48;;;;;;;3.59;92.84;100234.47;5051164;28;20148;-71
2021/12/09 09:22:39;;;;;;;14.60;3.35;;;;;;;3.65;91.74;100235.88;5056564;28;20064;-71
2021/12/09 09:25:08;;;;;;;2.95;2.28;;;;;;;3.67;91.03;100237.47;5038230;28;20101;-72
2021/12/09 09:27:35;;;;;;;5.65;3.25;;;;;;;3.76;91.61;100244.72;5038243;28;20123;-71
2021/12/09 09:30:05;;;;;;;2.40;1.92;;;;;;;3.81;91.17;100240.09;5056568;28;20052;-71
2021/12/09 09:32:32;;;;;;;3.83;1.60;;;;;;;3.94;90.49;100245.41;5056382;28;20037;-72
2021/12/09 09:35:00;;;;;;;4.10;2.00;;;;;;;4.10;89.75;100236.56;5034275;28;20084;-73
2021/12/09 09:37:27;;;;;;;13.68;2.60;;;;;;;4.23;89.73;100248.72;5054999;28;20046;-73
2021/12/09 09:39:54;;;;;;;6.63;3.25;;;;;;;4.30;89.18;100244.00;5058180;28;20609;-72
2021/12/09 09:42:44;;;;;;;5.10;2.75;;;;;;;4.33;89.12;100234.25;5054192;28;20041;-74
2021/12/09 09:45:16;;;;;;;3.10;1.92;;;;;;;4.55;87.27;100226.75;5039137;28;20063;-74
2021/12/09 09:47:44;;;;;;;1.92;0.98;;;;;;;4.67;87.10;100230.34;5052660;28;20044;-76
2021/12/09 09:50:12;;;;;;;3.42;2.42;;;;;;;4.71;87.05;100237.06;5056512;28;20045;-72
2021/12/09 09:52:40;;;;;;;4.60;2.70;;;;;;;4.62;87.68;100233.25;5035774;28;20051;-74
2021/12/09 09:55:10;;;;;;;2.20;1.60;;;;;;;4.62;87.38;100232.44;5046558;28;20096;-73
2021/12/09 09:57:37;;;;;;;3.50;2.53;;;;;;;4.67;87.57;100233.81;5038530;28;20048;-73
2021/12/09 10:00:05;;;;;;;4.80;2.13;;;;;;;4.67;86.78;100238.16;5037126;28;20056;-74
2021/12/09 10:02:37;;;;;;;3.95;2.67;;;;;;;4.65;87.94;100240.00;5036093;28;20106;-72
2021/12/09 10:05:06;;;;;;;4.10;2.85;;;;;;;4.54;86.92;100238.09;5055490;28;20056;-72
2021/12/09 10:07:34;;;;;;;26.98;2.40;;;;;;;4.49;88.19;100239.31;5039087;28;20080;-70
2021/12/09 10:10:02;;;;;;;12.18;2.72;;;;;;;4.50;88.34;100233.19;5040289;28;20461;-74
2021/12/09 10:12:29;;;;;;;6.60;3.20;;;;;;;4.47;88.33;100229.00;5064435;28;20113;-73
2021/12/09 10:14:56;;;;;;;3.53;2.00;;;;;;;4.51;88.03;100222.69;5038617;28;20044;-72
2021/12/09 10:17:24;;;;;;;11.07;2.78;;;;;;;4.54;87.63;100221.66;5041869;28;20519;-71
2021/12/09 10:19:55;;;;;;;4.10;2.20;;;;;;;4.52;88.12;100229.53;5054016;28;20057;-72
2021/12/09 10:22:24;;;;;;;8.18;2.30;;;;;;;4.46;87.50;100223.91;5066876;28;20043;-72
2021/12/09 10:24:54;;;;;;;4.18;2.40;;;;;;;4.47;87.74;100228.19;5058955;28;20040;-72
2021/12/09 10:27:28;;;;;;;2.97;2.22;;;;;;;4.49;87.77;100224.56;5070891;28;20044;-72
2021/12/09 10:29:58;;;;;;;2.38;1.70;;;;;;;4.57;87.53;100229.25;5071661;28;20060;-71
2021/12/09 10:32:30;;;;;;;4.20;3.03;;;;;;;4.64;87.35;100227.97;5080788;28;20044;-71
2021/12/09 10:35:04;;;;;;;4.65;2.47;;;;;;;4.69;87.06;100223.31;5060411;28;20114;-72
2021/12/09 10:37:33;;;;;;;1.33;1.20;;;;;;;4.78;86.03;100224.38;5059924;28;20056;-71
2021/12/09 10:40:02;;;;;;;2.60;1.75;;;;;;;4.81;85.75;100226.78;5048766;28;20044;-72
2021/12/09 10:42:31;;;;;;;5.35;2.17;;;;;;;4.87;86.65;100223.81;5055162;28;20051;-74
2021/12/09 10:45:00;;;;;;;6.55;3.30;;;;;;;4.88;86.04;100212.44;5038530;28;20059;-71
2021/12/09 10:47:46;;;;;;;3.50;1.45;;;;;;;4.92;85.83;100206.13;5056219;28;20036;-72
2021/12/09 10:50:26;;;;;;;2.25;1.60;;;;;;;4.92;85.37;100210.50;5048444;28;20048;-70
2021/12/09 10:52:56;;;;;;;2.80;2.10;;;;;;;4.95;85.63;100216.34;5055157;28;20044;-72
2021/12/09 10:55:26;;;;;;;6.22;1.90;;;;;;;4.84;86.06;100221.38;5054096;28;20162;-74
2021/12/09 10:57:56;;;;;;;3.70;1.70;;;;;;;4.76;86.12;100208.03;5054650;28;20050;-71
2021/12/09 11:00:28;;;;;;;7.03;1.42;;;;;;;4.78;86.34;100206.19;5035926;28;20044;-72
2021/12/09 11:03:03;;;;;;;;;;;;;;;4.80;86.76;100203.47;5035587;28;20111;-69
2021/12/09 11:05:38;;;;;;;0.70;0.50;;;;;;;4.76;86.91;100199.38;5027386;28;19936;-69
2021/12/09 11:08:23;;;;;;;1.58;1.48;;;;;;;4.81;85.69;100190.34;5032010;28;20045;-70
2021/12/09 11:10:53;;;;;;;2.58;1.65;;;;;;;4.94;85.55;100191.25;5039011;28;20045;-70
2021/12/09 11:13:22;;;;;;;2.42;1.85;;;;;;;4.98;84.87;100187.50;5031996;28;20053;-71
2021/12/09 11:15:55;;;;;;;2.63;1.90;;;;;;;5.05;84.98;100185.34;5027636;28;20056;-70
2021/12/09 11:18:36;;;;;;;2.05;1.15;;;;;;;5.22;84.69;100188.50;5026063;28;20046;-72
2021/12/09 11:21:09;;;;;;;4.18;2.08;;;;;;;5.29;84.38;100176.75;5028395;28;20126;-71
2021/12/09 11:23:40;;;;;;;5.35;2.40;;;;;;;5.21;84.19;100186.81;5028499;28;20033;-70
2021/12/09 11:26:34;;;;;;;1.20;0.95;;;;;;;5.13;84.77;100190.88;5031352;28;20116;-72
2021/12/09 11:29:04;;;;;;;2.03;1.13;;;;;;;5.14;84.48;100176.94;5027536;28;20123;-70
2021/12/09 11:31:34;;;;;;;2.35;1.15;;;;;;;5.24;84.40;100181.41;5044377;28;20048;-70
2021/12/09 11:34:07;;;;;;;1.65;1.27;;;;;;;5.30;83.96;100188.81;5029004;28;20033;-76
2021/12/09 11:36:41;;;;;;;3.70;2.08;;;;;;;5.22;84.18;100191.09;5028235;28;20525;-73
2021/12/09 11:39:14;;;;;;;3.17;1.33;;;;;;;5.25;84.01;100184.88;5027357;28;20041;-72